Latest Coastal Weather Observations for Rottnest Island

IDW60701

Issued at 8:03 pm WST Friday 29 April 2016 (issued every 10 minutes, with the page automatically refreshed every 10 minutes)

About coastal observations | Map of coastal stations | Coastal observations for WA | Marine services | Other Formats
Station Details ID: 009193 Name: ROTTNEST ISLAND Lat: -32.01 Lon: 115.50 Height: 43.1 m
Data from the previous 72 hours. | See also: Recent months at Rottnest Island
Date/Time
WST
Temp

°C
Wind Pressure Rain
since 9am
mm
Weather Cloud Vis
km
Sea
Height
m
Swell
Dir
 
Speed
knots
Gust
knots
hPa Trend Height
m
Period
s
Dir
29/08:00pm 17.7 WSW 23 36 1015.2 - 0.0 - - - - - - -
29/07:59pm 17.9 WSW 22 36 1015.2 - 0.0 - - - - - - -
29/07:57pm 18.5 WSW 20 28 1015.1 - 0.0 - - - - - - -
29/07:30pm 18.6 W 22 27 1015.0 - 0.0 - - - - - - -
29/07:00pm 18.9 W 19 27 1014.7 - 0.0 - - - - - - -
29/06:30pm 19.0 W 19 25 1014.6 - 0.0 - - - - - - -
29/06:00pm 18.9 W 18 25 1014.4 - 0.0 - - - - - - -
29/05:39pm 19.0 W 17 27 1014.3 - 0.0 - - - - - - -
29/05:30pm 18.8 W 19 25 1014.3 - 0.0 - - - - - - -
29/05:00pm 19.1 W 18 25 1014.3 - 0.0 - - - - - - -
29/04:30pm 19.3 W 17 24 1014.4 - 0.0 - - - - - - -
29/04:00pm 19.1 W 17 23 1014.6 - 0.0 - - - - - - -
29/03:30pm 20.5 W 18 23 1014.5 - 0.0 - - - - - - -
29/03:00pm 19.5 W 18 25 1014.4 - 0.0 - - - - - - -
29/02:30pm 20.1 W 16 25 1014.3 - 0.0 - - - - - - -
29/02:00pm 20.2 W 21 28 1014.2 - 0.0 - - - - - - -
29/01:30pm 20.5 W 21 29 1014.5 - 0.0 - - - - - - -
29/01:00pm 20.2 W 17 24 1014.7 - 0.0 - - - - - - -
29/12:45pm 17.8 WSW 17 27 1015.0 - 0.0 - - - - - - -
29/12:30pm 19.5 W 16 23 1015.0 - 0.0 - - - - - - -
29/12:00pm 20.4 W 18 23 1015.1 - 0.0 - - - - - - -
29/11:30am 19.4 WSW 18 25 1015.4 - 0.0 - - - - - - -
29/11:00am 19.1 W 17 24 1015.5 - 0.0 - - - - - - -
29/10:30am 20.2 W 17 24 1015.6 - 0.0 - - - - - - -
29/10:00am 18.5 WSW 13 19 1015.8 - 0.0 - - - - - - -
29/09:30am 19.1 WSW 15 20 1015.9 - 0.0 - - - - - - -
29/09:00am 19.3 WNW 15 19 1015.8 - 2.4 - - - - - - -
29/08:30am 18.9 W 13 17 1015.5 - 2.4 - - - - - - -
29/08:00am 18.4 WSW 13 16 1015.5 - 2.4 - - - - - - -
29/07:30am 18.3 WSW 13 17 1015.1 - 2.4 - - - - - - -
29/07:00am 17.7 WSW 14 18 1015.1 - 2.4 - - - - - - -
29/06:30am 17.7 WSW 15 20 1015.0 - 2.4 - - - - - - -
29/06:00am 17.8 WSW 14 19 1015.0 - 2.4 - - - - - - -
29/05:30am 17.7 W 13 18 1015.0 - 2.4 - - - - - - -
29/05:00am 17.2 WSW 12 16 1014.8 - 2.4 - - - - - - -
29/04:30am 17.3 WSW 11 14 1014.9 - 2.4 - - - - - - -
29/04:00am 17.4 WSW 13 16 1015.0 - 2.4 - - - - - - -
29/03:30am 17.6 WSW 13 18 1015.1 - 2.4 - - - - - - -
29/03:00am 17.6 WSW 15 19 1015.2 - 2.4 - - - - - - -
29/02:30am 17.6 WSW 13 17 1015.4 - 2.4 - - - - - - -
29/02:00am 17.9 WSW 14 18 1015.3 - 2.4 - - - - - - -
29/01:30am 17.5 WSW 10 14 1015.2 - 2.4 - - - - - - -
29/01:00am 17.5 WSW 11 15 1015.1 - 2.4 - - - - - - -
29/12:30am 17.6 WSW 11 14 1015.2 - 2.4 - - - - - - -
29/12:00am 17.6 WSW 13 18 1015.4 - 2.4 - - - - - - -
 
Date/Time
WST
Temp

°C
Wind Pressure Rain
since 9am
mm
Weather Cloud Vis
km
Sea
Height
m
Swell
Dir
 
Speed
knots
Gust
knots
hPa Trend Height
m
Period
s
Dir
28/11:30pm 17.9 WSW 15 19 1015.4 - 2.4 - - - - - - -
28/11:00pm 17.9 WSW 15 20 1015.5 - 2.4 - - - - - - -
28/10:30pm 18.2 SW 17 21 1015.6 - 2.4 - - - - - - -
28/10:00pm 18.1 SW 16 20 1015.6 - 2.4 - - - - - - -
28/09:30pm 17.5 SW 16 22 1015.5 - 2.4 - - - - - - -
28/09:00pm 18.1 SW 17 21 1015.5 - 2.4 - - - - - - -
28/08:30pm 18.3 SW 16 21 1015.4 - 2.4 - - - - - - -
28/08:00pm 18.0 SW 16 20 1015.2 - 2.4 - - - - - - -
28/07:30pm 18.3 SW 19 25 1015.1 - 2.4 - - - - - - -
28/07:00pm 18.4 SW 17 22 1014.9 - 2.4 - - - - - - -
28/06:30pm 18.2 SW 19 23 1014.6 - 2.4 - - - - - - -
28/06:00pm 18.4 SW 19 25 1014.2 - 2.4 - - - - - - -
28/05:30pm 18.4 SW 19 26 1014.0 - 2.4 - - - - - - -
28/05:00pm 18.6 WSW 21 27 1013.7 - 2.4 - - - - - - -
28/04:30pm 18.5 WSW 19 25 1013.6 - 2.4 - - - - - - -
28/04:00pm 18.4 SW 18 26 1013.6 - 2.4 - - - - - - -
28/03:30pm 18.7 WSW 18 23 1013.6 - 2.4 - - - - - - -
28/03:13pm 17.9 WSW 19 30 1013.6 - 2.4 - - - - - - -
28/03:00pm 17.8 WSW 18 23 1013.5 - 2.4 Recent precip. - - - - - -
28/02:32pm 17.0 WSW 18 28 1013.7 - 2.4 - - - - - - -
28/02:30pm 16.8 WSW 19 28 1013.6 - 2.0 - - - - - - -
28/02:00pm 19.4 WSW 20 25 1013.4 - 0.6 - - - - - - -
28/01:41pm 17.9 WSW 21 32 1013.6 - 0.6 - - - - - - -
28/01:30pm 19.0 W 23 31 1013.6 - 0.6 - - - - - - -
28/01:00pm 18.9 WNW 20 26 1014.0 - 0.6 - - - - - - -
28/12:30pm 17.3 W 18 25 1014.4 - 0.6 - - - - - - -
28/12:19pm 17.8 W 21 31 1014.6 - 0.4 - - - - - - -
28/12:00pm 20.2 WNW 21 27 1014.5 - 0.0 - - - - - - -
28/11:30am 18.1 W 18 23 1014.7 - 0.0 - - - - - - -
28/11:02am 18.9 W 22 32 1014.8 - 0.0 - - - - - - -
28/11:00am 19.3 WNW 21 27 1014.7 - 0.0 - - - - - - -
28/10:30am 20.1 WNW 18 24 1014.9 - 0.0 - - - - - - -
28/10:00am 19.6 WNW 21 26 1015.1 - 0.0 - - - - - - -
28/09:30am 18.2 W 19 25 1015.5 - 0.0 - - - - - - -
28/09:18am 18.2 WNW 15 28 1015.4 - 0.0 - - - - - - -
28/09:00am 16.3 WNW 16 23 1015.5 - 2.0 Recent precip. - - - - - -
28/08:37am 18.0 W 16 29 1015.5 - 1.8 - - - - - - -
28/08:30am 17.8 W 15 22 1015.3 - 1.8 - - - - - - -
28/08:00am 17.9 W 17 22 1014.9 - 1.8 - - - - - - -
28/07:30am 17.4 W 15 21 1014.6 - 1.8 - - - - - - -
28/07:00am 16.8 W 15 21 1014.4 - 1.8 - - - - - - -
28/06:30am 16.6 WNW 17 23 1014.5 - 1.8 - - - - - - -
28/06:00am 16.4 WNW 16 25 1014.3 - 1.8 - - - - - - -
28/05:31am 16.8 WNW 15 29 1014.4 - 1.8 - - - - - - -
28/05:30am 16.7 WNW 15 19 1014.3 - 1.8 - - - - - - -
28/05:00am 15.8 WNW 14 20 1014.2 - 1.8 - - - - - - -
28/04:30am 15.3 W 11 16 1014.6 - 1.8 - - - - - - -
28/04:00am 15.2 WSW 17 23 1014.6 - 1.8 - - - - - - -
28/03:45am 16.0 W 14 27 1014.6 - 1.8 - - - - - - -
28/03:30am 16.0 WNW 15 20 1014.6 - 1.8 - - - - - - -
28/03:00am 15.1 NW 10 14 1014.8 - 1.8 Recent precip. - - - - - -
28/02:30am 14.7 NW 13 17 1015.5 - 1.8 - - - - - - -
28/02:00am 14.8 W 16 22 1015.6 - 1.6 - - - - - - -
28/01:30am 16.1 W 10 13 1015.5 - 1.2 - - - - - - -
28/01:00am 16.0 W 9 13 1015.5 - 1.2 - - - - - - -
28/12:30am 15.7 W 9 11 1015.5 - 1.2 - - - - - - -
28/12:00am 15.3 WNW 9 12 1015.7 - 1.2 - - - - - - -
 
Date/Time
WST
Temp

°C
Wind Pressure Rain
since 9am
mm
Weather Cloud Vis
km
Sea
Height
m
Swell
Dir
 
Speed
knots
Gust
knots
hPa Trend Height
m
Period
s
Dir
27/11:30pm 15.5 W 9 14 1016.0 - 1.2 - - - - - - -
27/11:00pm 15.9 W 4 6 1016.0 - 1.2 - - - - - - -
27/10:30pm 15.7 W 4 5 1016.2 - 1.2 - - - - - - -
27/10:00pm 15.6 WSW 2 3 1016.5 - 1.2 - - - - - - -
27/09:30pm 15.3 SW 5 6 1017.0 - 1.2 - - - - - - -
27/09:00pm 15.3 SW 4 5 1016.9 - 1.2 - - - - - - -
27/08:30pm 15.2 SW 6 7 1017.1 - 1.2 - - - - - - -
27/08:00pm 14.7 WNW 1 4 1017.1 - 1.2 - - - - - - -
27/07:30pm 15.1 SSE 4 8 1016.9 - 1.2 - - - - - - -
27/07:00pm 14.9 E 2 4 1016.8 - 1.2 - - - - - - -
27/06:30pm 15.2 CALM 0 0 1016.7 - 1.2 - - - - - - -
27/06:00pm 14.9 ENE 3 4 1016.2 - 1.2 - - - - - - -
27/05:30pm 15.4 CALM 0 0 1016.1 - 1.2 - - - - - - -
27/05:00pm 15.7 CALM 0 2 1016.3 - 1.2 - - - - - - -
27/04:30pm 15.6 SE 5 6 1016.2 - 1.2 - - - - - - -
27/04:00pm 15.7 ESE 6 8 1016.2 - 1.0 - - - - - - -
27/03:30pm 17.2 E 7 9 1016.1 - 1.0 - - - - - - -
27/03:00pm 17.5 W 6 9 1016.1 - 1.0 - - - - - - -
27/02:30pm 17.2 N 7 11 1016.1 - 1.0 - - - - - - -
27/02:00pm 16.9 NE 5 8 1016.2 - 1.0 - - - - - - -
27/01:30pm 17.5 NNE 6 7 1016.3 - 1.0 - - - - - - -
27/01:00pm 16.4 NE 7 9 1016.7 - 1.0 - - - - - - -
27/12:30pm 14.7 ENE 6 7 1017.0 - 1.0 - - - - - - -
27/12:00pm 14.5 NE 5 7 1017.5 - 1.0 Recent precip. - - - - - -
27/11:30am 13.8 NW 5 6 1017.8 - 1.0 - - - - - - -
27/11:00am 14.8 NNE 7 11 1017.8 - 0.2 - - - - - - -
27/10:30am 15.0 NE 7 9 1017.8 - 0.0 - - - - - - -
27/10:00am 14.4 NE 5 7 1018.1 - 0.0 - - - - - - -
27/09:30am 15.2 NE 8 11 1017.7 - 0.0 - - - - - - -
27/09:00am 14.4 NE 7 9 1018.0 - 5.0 Recent precip. - - - - - -
27/08:30am 13.0 NNE 4 8 1018.1 - 5.0 - - - - - - -
27/08:00am 12.6 ENE 6 9 1017.7 - 4.8 - - - - - - -
27/07:30am 12.9 NE 7 9 1017.3 - 3.6 - - - - - - -
27/07:00am 12.6 NNE 6 8 1017.1 - 3.6 - - - - - - -
27/06:30am 12.4 NE 5 9 1016.8 - 3.4 - - - - - - -
27/06:00am 12.3 ENE 7 9 1016.7 - 3.2 Recent precip. - - - - - -
27/05:30am 12.2 ENE 8 11 1016.7 - 3.2 - - - - - - -
27/05:00am 12.2 E 6 8 1016.9 - 2.8 - - - - - - -
27/04:30am 12.0 ESE 5 11 1016.4 - 2.6 - - - - - - -
27/04:00am 12.4 ESE 7 11 1016.4 - 2.6 - - - - - - -
27/03:30am 12.9 NW 5 11 1016.3 - 2.6 - - - - - - -
27/03:00am 12.8 NE 4 6 1015.7 - 1.2 Recent precip. - - - - - -
27/02:30am 12.8 NE 6 9 1015.8 - 1.2 - - - - - - -
27/02:00am 13.0 E 7 11 1015.8 - 0.6 - - - - - - -
27/01:30am 13.1 E 9 12 1015.8 - 0.6 - - - - - - -
27/01:00am 13.2 ESE 8 11 1015.7 - 0.6 - - - - - - -
27/12:30am 13.6 ESE 11 16 1015.4 - 0.6 - - - - - - -
27/12:00am 14.6 SSE 15 22 1015.4 - 0.6 Recent precip. - - - - - -
 
Date/Time
WST
Temp

°C
Wind Pressure Rain
since 9am
mm
Weather Cloud Vis
km
Sea
Height
m
Swell
Dir
 
Speed
knots
Gust
knots
hPa Trend Height
m
Period
s
Dir
26/11:30pm 15.2 SW 10 16 1015.7 - 0.4 - - - - - - -
26/11:00pm 16.0 SSW 17 22 1015.4 - 0.2 - - - - - - -
26/10:30pm 16.7 SW 13 20 1015.3 - 0.2 - - - - - - -
26/10:00pm 16.7 SW 14 18 1015.3 - 0.2 - - - - - - -
26/09:30pm 16.8 SSW 16 23 1015.1 - 0.2 - - - - - - -
26/09:00pm 16.7 SSW 16 21 1015.1 - 0.2 - - - - - - -
26/08:30pm 16.8 SSW 18 23 1014.6 - 0.2 - - - - - - -

Other Formats:

Comma delimited format used in spreadsheet applications
http://www.bom.gov.au/fwo/IDW60701/IDW60701.94602.axf

JavaScript Object Notation format (JSON) in row-major order
http://www.bom.gov.au/fwo/IDW60701/IDW60701.94602.json